Time;durP1;ratioP1;P1;durP2;ratioP2;P2;SDS_P1;SDS_P2;PMS_P1;PMS_P2;Temp;Humidity;BMP_temperature;BMP_pressure;BME280_temperature;BME280_humidity;BME280_pressure;Samples;Min_cycle;Max_cycle;Signal;HPM_P1;HPM_P2
2022/01/18 00:00:09;;;;;;;31.58;5.93;;;8.60;99.90;;;;;;5116083;27;20047;-74
2022/01/18 00:02:37;;;;;;;34.78;5.50;;;10.10;99.90;;;;;;5103761;27;20047;-75
2022/01/18 00:05:03;;;;;;;38.80;6.68;;;9.90;99.90;;;;;;5133161;27;20125;-75
2022/01/18 00:07:29;;;;;;;33.45;6.45;;;10.10;99.90;;;;;;5099098;27;20047;-75
2022/01/18 00:09:55;;;;;;;36.40;6.28;;;8.80;99.90;;;;;;5113807;27;20092;-75
2022/01/18 00:15:31;;;;;;;40.35;5.93;;;9.10;99.90;;;;;;5133672;27;20428;-75
2022/01/18 00:20:57;;;;;;;35.95;6.03;;;9.10;99.90;;;;;;5131107;27;20438;-75
2022/01/18 00:23:24;;;;;;;28.92;4.85;;;8.50;99.90;;;;;;5123783;27;20135;-75
2022/01/18 00:25:54;;;;;;;38.65;6.57;;;8.50;99.90;;;;;;5109897;27;20936;-75
2022/01/18 00:28:25;;;;;;;39.10;6.30;;;9.70;99.90;;;;;;5098147;27;20035;-74
2022/01/18 00:34:08;;;;;;;34.00;5.78;;;9.90;99.90;;;;;;5130492;27;20039;-74
2022/01/18 00:36:24;;;;;;;33.58;5.25;;;9.40;99.90;;;;;;5113507;27;20046;-74
2022/01/18 00:38:50;;;;;;;39.30;7.22;;;9.70;99.90;;;;;;5094713;27;20027;-75
2022/01/18 00:41:20;;;;;;;44.45;5.97;;;8.50;99.90;;;;;;5096527;27;20039;-74
2022/01/18 00:43:47;;;;;;;36.83;5.07;;;8.40;99.90;;;;;;5130357;27;20054;-74
2022/01/18 00:46:14;;;;;;;39.53;5.03;;;8.70;99.90;;;;;;5130082;27;20065;-74
2022/01/18 00:48:41;;;;;;;33.63;5.40;;;9.70;99.90;;;;;;5112682;27;20043;-75
2022/01/18 00:51:11;;;;;;;29.63;4.55;;;9.40;99.90;;;;;;5112557;27;20038;-74
2022/01/18 00:53:38;;;;;;;29.20;3.83;;;9.60;99.90;;;;;;5128740;27;20569;-75
2022/01/18 00:58:39;;;;;;;53.78;5.47;;;8.60;99.90;;;;;;5131705;27;20031;-75
2022/01/18 01:01:05;;;;;;;36.42;4.75;;;8.30;99.90;;;;;;5134324;27;20046;-74
2022/01/18 01:03:31;;;;;;;41.55;6.43;;;8.50;99.90;;;;;;5132268;27;20046;-74
2022/01/18 01:05:57;;;;;;;38.78;5.90;;;9.50;99.90;;;;;;5110627;27;20065;-75
2022/01/18 01:08:23;;;;;;;38.83;6.18;;;8.80;99.90;;;;;;5097780;27;20124;-75
2022/01/18 01:10:49;;;;;;;38.80;5.70;;;8.40;99.90;;;;;;5130978;27;20034;-75
2022/01/18 01:13:15;;;;;;;43.15;5.35;;;8.40;99.90;;;;;;5132056;27;20163;-75
2022/01/18 01:34:57;;;;;;;48.10;6.60;;;9.80;99.90;;;;;;5130861;27;20066;-75
2022/01/18 01:43:11;;;;;;;43.38;5.32;;;8.90;99.90;;;;;;5132393;27;20050;-77
2022/01/18 01:45:37;;;;;;;42.90;4.80;;;8.30;99.90;;;;;;5111319;27;20059;-75
2022/01/18 01:48:03;;;;;;;30.98;4.22;;;9.90;99.90;;;;;;5132019;27;20045;-76
2022/01/18 01:53:11;;;;;;;32.35;4.18;;;8.30;99.90;;;;;;5124700;27;20746;-76
2022/01/18 01:55:37;;;;;;;35.83;5.57;;;9.50;99.90;;;;;;5106117;27;20050;-77
2022/01/18 01:58:03;;;;;;;28.35;4.57;;;8.80;99.90;;;;;;5118643;27;20495;-77
2022/01/18 02:00:29;;;;;;;30.15;4.15;;;10.40;99.90;;;;;;5130864;27;20118;-77
2022/01/18 02:02:54;;;;;;;27.63;3.83;;;8.50;99.90;;;;;;5109975;27;20122;-76
2022/01/18 02:05:22;;;;;;;33.55;4.85;;;10.20;99.90;;;;;;5110932;27;20038;-76
2022/01/18 02:07:49;;;;;;;26.73;4.53;;;8.60;99.90;;;;;;5126999;28;20078;-77
2022/01/18 02:10:14;;;;;;;47.53;6.88;;;8.60;99.90;;;;;;5112057;27;20045;-76
2022/01/18 02:12:40;;;;;;;30.15;4.57;;;10.40;99.90;;;;;;5113767;27;20027;-76
2022/01/18 02:15:15;;;;;;;29.08;4.43;;;10.60;99.90;;;;;;5096426;27;20027;-75
2022/01/18 02:23:14;;;;;;;32.85;5.07;;;10.30;99.90;;;;;;5129642;28;20047;-75
2022/01/18 02:25:41;;;;;;;35.65;4.18;;;9.30;99.90;;;;;;5128858;28;20376;-75
2022/01/18 02:28:07;;;;;;;29.63;4.47;;;10.40;99.90;;;;;;5128441;28;20043;-75
2022/01/18 02:30:32;;;;;;;24.10;4.95;;;9.60;99.90;;;;;;5126725;28;20035;-75
2022/01/18 02:32:58;;;;;;;21.95;3.28;;;10.30;99.90;;;;;;5129178;28;20042;-75
2022/01/18 02:35:24;;;;;;;25.02;4.18;;;9.10;99.90;;;;;;5091594;28;20495;-75
2022/01/18 02:37:53;;;;;;;20.63;4.72;;;10.40;99.90;;;;;;5093175;28;20126;-73
2022/01/18 02:40:20;;;;;;;25.88;3.72;;;9.20;99.90;;;;;;5107789;28;20035;-73
2022/01/18 02:42:56;;;;;;;27.35;4.72;;;9.60;99.90;;;;;;5129537;28;20054;-73
2022/01/18 02:45:22;;;;;;;26.52;4.85;;;9.60;99.90;;;;;;5106823;28;20047;-74
2022/01/18 02:47:48;;;;;;;31.67;5.30;;;10.50;99.90;;;;;;5091868;28;20045;-74
2022/01/18 02:50:14;;;;;;;20.80;4.15;;;9.60;99.90;;;;;;5102378;28;20720;-74
2022/01/18 02:52:40;;;;;;;29.15;4.43;;;9.00;99.90;;;;;;5127130;28;20031;-74
2022/01/18 02:55:06;;;;;;;25.70;3.60;;;9.10;99.90;;;;;;5092658;28;20043;-75
2022/01/18 02:57:41;;;;;;;26.17;3.80;;;9.10;99.90;;;;;;5094081;27;20068;-76
2022/01/18 03:00:18;;;;;;;25.80;3.83;;;9.90;99.90;;;;;;5111909;27;20096;-76
2022/01/18 03:05:28;;;;;;;22.43;3.80;;;10.40;99.90;;;;;;5116169;27;20031;-75
2022/01/18 03:07:54;;;;;;;21.35;3.22;;;11.00;99.90;;;;;;5132103;27;20043;-76
2022/01/18 03:10:20;;;;;;;28.23;3.53;;;10.50;99.90;;;;;;5121368;27;20093;-75
2022/01/18 03:12:46;;;;;;;19.63;3.72;;;10.40;99.90;;;;;;5095067;28;20051;-74
2022/01/18 03:15:12;;;;;;;24.45;4.18;;;11.00;99.90;;;;;;5122411;27;20043;-75
2022/01/18 03:17:38;;;;;;;27.67;3.97;;;10.70;99.90;;;;;;5132394;27;20062;-74
2022/01/18 03:20:06;;;;;;;17.15;3.38;;;9.80;99.90;;;;;;5129141;27;20100;-75
2022/01/18 03:22:33;;;;;;;22.35;4.15;;;10.70;99.90;;;;;;5113780;27;20095;-74
2022/01/18 03:25:14;;;;;;;27.20;4.32;;;10.10;99.90;;;;;;5114292;27;20047;-74
2022/01/18 03:30:24;;;;;;;24.90;4.05;;;9.20;99.90;;;;;;5130278;27;20050;-74
2022/01/18 03:32:49;;;;;;;22.10;3.13;;;10.70;99.90;;;;;;5131527;27;20039;-74
2022/01/18 03:35:15;;;;;;;15.77;4.35;;;9.70;99.90;;;;;;5114977;27;20130;-75
2022/01/18 03:37:42;;;;;;;18.02;3.78;;;10.80;99.90;;;;;;5114458;27;20479;-74
2022/01/18 03:40:09;;;;;;;21.20;4.05;;;9.70;99.90;;;;;;5080676;27;20051;-75
2022/01/18 03:42:42;;;;;;;19.73;2.97;;;10.70;99.90;;;;;;5128771;27;20047;-75
2022/01/18 03:45:19;;;;;;;23.02;3.75;;;9.50;99.90;;;;;;5098003;27;20150;-74
2022/01/18 03:47:46;;;;;;;13.50;3.35;;;10.80;99.90;;;;;;5129979;27;20372;-74
2022/01/18 03:50:13;;;;;;;23.27;3.50;;;10.20;99.90;;;;;;5130979;27;20429;-74
2022/01/18 03:52:40;;;;;;;21.95;3.30;;;9.60;99.90;;;;;;5124701;27;20050;-75
2022/01/18 03:55:08;;;;;;;11.15;2.60;;;10.80;99.90;;;;;;5111677;28;20043;-75
2022/01/18 03:57:34;;;;;;;19.73;2.80;;;9.10;99.90;;;;;;5129313;27;20074;-74
2022/01/18 04:00:00;;;;;;;17.52;2.53;;;10.50;99.90;;;;;;5114910;27;20195;-74
2022/01/18 04:02:26;;;;;;;32.47;4.15;;;9.70;99.90;;;;;;5109265;28;20495;-76
2022/01/18 04:04:52;;;;;;;16.02;2.70;;;10.40;99.90;;;;;;5111878;27;20123;-75
2022/01/18 04:07:18;;;;;;;15.73;2.85;;;10.30;99.90;;;;;;5111671;27;20122;-75
2022/01/18 04:09:44;;;;;;;22.25;3.38;;;10.50;99.90;;;;;;5112754;27;20042;-75
2022/01/18 04:12:10;;;;;;;17.38;2.40;;;10.30;99.90;;;;;;5128977;27;20091;-75
2022/01/18 04:14:36;;;;;;;12.48;2.78;;;10.70;99.90;;;;;;5113082;27;20039;-75
2022/01/18 04:28:47;;;;;;;21.30;3.30;;;10.20;99.90;;;;;;5118484;27;20050;-75
2022/01/18 04:30:54;;;;;;;13.40;2.80;;;10.50;99.90;;;;;;5113992;27;20435;-74
2022/01/18 04:33:21;;;;;;;13.32;2.30;;;9.90;99.90;;;;;;5111710;27;20130;-75
2022/01/18 04:35:47;;;;;;;11.65;2.25;;;9.80;99.90;;;;;;5115907;27;20070;-75
2022/01/18 04:38:13;;;;;;;12.68;2.38;;;9.60;99.90;;;;;;5096878;27;20077;-75
2022/01/18 04:40:42;;;;;;;15.15;2.35;;;10.40;99.90;;;;;;5130638;27;20118;-74
2022/01/18 04:43:18;;;;;;;18.70;2.17;;;9.80;99.90;;;;;;5132462;27;20038;-75
2022/01/18 04:48:33;;;;;;;14.77;2.75;;;10.40;99.90;;;;;;5130508;27;20120;-75
2022/01/18 04:51:09;;;;;;;18.05;2.72;;;10.00;99.90;;;;;;5116828;27;20119;-75
2022/01/18 04:53:41;;;;;;;10.75;2.00;;;9.00;99.90;;;;;;5128664;27;20042;-75
2022/01/18 04:56:11;;;;;;;8.02;2.10;;;9.60;99.90;;;;;;5133229;27;20046;-75
2022/01/18 04:58:37;;;;;;;13.90;2.05;;;10.00;99.90;;;;;;5115647;27;20053;-75
2022/01/18 05:01:06;;;;;;;9.38;1.65;;;10.40;99.90;;;;;;5129058;27;20076;-75
2022/01/18 05:03:32;;;;;;;7.95;2.00;;;8.90;99.90;;;;;;5130930;27;20055;-75
2022/01/18 05:06:01;;;;;;;8.95;2.17;;;10.20;99.90;;;;;;5116173;27;20137;-75
2022/01/18 05:08:27;;;;;;;11.30;2.53;;;10.40;99.90;;;;;;5115223;27;20072;-74
2022/01/18 05:10:56;;;;;;;6.68;1.95;;;9.10;99.90;;;;;;5114523;27;20038;-75
2022/01/18 05:16:04;;;;;;;14.23;2.33;;;10.20;99.90;;;;;;5117568;27;20715;-75
2022/01/18 05:23:33;;;;;;;9.63;1.88;;;10.10;99.90;;;;;;5125218;27;20117;-75
2022/01/18 05:25:59;;;;;;;12.05;2.83;;;10.20;99.90;;;;;;5111001;27;20168;-75
2022/01/18 05:28:24;;;;;;;9.23;1.95;;;9.20;99.90;;;;;;5111833;27;20394;-75
2022/01/18 05:30:50;;;;;;;11.50;2.30;;;9.60;99.90;;;;;;5109680;27;20035;-75
2022/01/18 05:33:18;;;;;;;9.93;2.00;;;9.20;99.90;;;;;;5108847;27;20522;-75
2022/01/18 05:35:44;;;;;;;11.90;2.22;;;9.00;99.90;;;;;;5111543;27;20076;-74
2022/01/18 05:38:10;;;;;;;7.43;1.80;;;8.90;99.90;;;;;;5126143;27;20062;-74
2022/01/18 05:40:37;;;;;;;12.20;2.10;;;9.10;99.90;;;;;;5130247;27;20125;-75
2022/01/18 05:43:04;;;;;;;6.07;1.48;;;8.80;99.90;;;;;;5114612;27;20084;-74
2022/01/18 05:45:29;;;;;;;8.63;2.13;;;10.10;99.90;;;;;;5089518;27;20110;-76
2022/01/18 05:47:55;;;;;;;10.73;1.80;;;9.10;99.90;;;;;;5131735;27;20066;-74
2022/01/18 05:50:21;;;;;;;7.60;1.65;;;9.20;99.90;;;;;;5078106;27;20035;-75
2022/01/18 05:52:47;;;;;;;6.57;1.40;;;10.10;99.90;;;;;;5114149;27;20110;-74
2022/01/18 05:55:13;;;;;;;9.20;1.67;;;9.10;99.90;;;;;;5090986;27;20165;-74
2022/01/18 05:57:39;;;;;;;10.43;1.92;;;8.80;99.90;;;;;;5112716;27;20062;-74
2022/01/18 06:00:08;;;;;;;6.95;2.08;;;9.40;99.90;;;;;;5096739;27;20071;-74
2022/01/18 06:02:43;;;;;;;10.65;2.03;;;8.70;99.90;;;;;;5115472;27;20038;-74
2022/01/18 06:07:55;;;;;;;9.70;2.10;;;9.20;99.90;;;;;;5130569;27;20073;-75
2022/01/18 06:10:21;;;;;;;8.52;1.90;;;8.70;99.90;;;;;;5130680;27;20046;-75
2022/01/18 06:12:47;;;;;;;6.25;1.30;;;8.80;99.90;;;;;;5131041;27;20035;-75
2022/01/18 06:15:13;;;;;;;11.20;2.25;;;9.80;99.90;;;;;;5109434;28;20118;-75
2022/01/18 06:17:39;;;;;;;9.20;1.58;;;9.80;99.90;;;;;;5102501;27;20039;-75
2022/01/18 06:20:07;;;;;;;5.63;2.53;;;9.90;99.90;;;;;;5114687;27;20059;-75
2022/01/18 06:22:33;;;;;;;7.43;1.70;;;9.80;99.90;;;;;;5114251;27;20071;-75
2022/01/18 06:24:59;;;;;;;7.57;1.42;;;9.90;99.90;;;;;;5114348;27;20066;-75
2022/01/18 06:27:25;;;;;;;10.65;2.00;;;9.20;99.90;;;;;;5130888;27;20076;-75
2022/01/18 06:29:50;;;;;;;7.53;2.25;;;9.90;99.90;;;;;;5113397;27;20467;-76
2022/01/18 06:32:16;;;;;;;6.30;1.80;;;9.00;99.90;;;;;;5076688;27;20027;-75
2022/01/18 06:34:43;;;;;;;7.25;1.75;;;9.00;99.90;;;;;;5096578;27;20030;-75
2022/01/18 06:37:09;;;;;;;7.25;1.60;;;8.70;99.90;;;;;;5132679;27;20055;-75
2022/01/18 06:39:34;;;;;;;4.85;1.75;;;9.80;99.90;;;;;;5134699;27;20077;-75
2022/01/18 06:42:00;;;;;;;12.15;1.88;;;9.50;99.90;;;;;;5118722;27;20091;-75
2022/01/18 06:44:26;;;;;;;10.80;2.20;;;9.20;99.90;;;;;;5137686;27;20100;-75
2022/01/18 06:46:53;;;;;;;11.40;2.20;;;9.50;99.90;;;;;;5136403;27;20049;-76
2022/01/18 06:49:19;;;;;;;7.28;2.08;;;10.00;99.90;;;;;;5136990;27;20035;-75
2022/01/18 06:51:44;;;;;;;10.85;2.20;;;8.70;99.90;;;;;;5086305;27;20035;-75
2022/01/18 06:54:15;;;;;;;10.85;2.15;;;9.50;99.90;;;;;;5133097;27;20141;-75
2022/01/18 06:56:47;;;;;;;10.75;3.47;;;9.20;99.90;;;;;;5136407;27;20039;-75
2022/01/18 06:59:13;;;;;;;6.82;2.25;;;10.00;99.90;;;;;;5100098;27;20046;-75
2022/01/18 07:01:40;;;;;;;9.25;2.22;;;9.00;99.90;;;;;;5134033;27;20511;-75
2022/01/18 07:04:06;;;;;;;10.55;2.50;;;8.80;99.90;;;;;;5119591;27;20042;-75
2022/01/18 07:06:33;;;;;;;11.38;3.05;;;9.60;99.90;;;;;;5119622;27;20375;-76
2022/01/18 07:08:59;;;;;;;5.28;1.80;;;9.80;99.90;;;;;;5135368;27;20038;-76
2022/01/18 07:11:25;;;;;;;6.78;2.60;;;9.30;99.90;;;;;;5136407;27;20034;-76
2022/01/18 07:13:51;;;;;;;8.35;3.10;;;9.80;99.90;;;;;;5118666;27;20049;-77
2022/01/18 07:16:16;;;;;;;6.95;2.75;;;9.50;99.90;;;;;;5118819;27;20027;-76
2022/01/18 07:18:42;;;;;;;10.68;3.10;;;9.80;99.90;;;;;;5101645;27;20037;-75
2022/01/18 07:21:10;;;;;;;12.60;2.90;;;9.10;99.90;;;;;;5132505;27;20094;-76
2022/01/18 07:23:36;;;;;;;10.25;2.45;;;9.60;99.90;;;;;;5114489;27;20050;-76
2022/01/18 07:26:03;;;;;;;14.93;2.40;;;8.60;99.90;;;;;;5122834;27;20475;-76
2022/01/18 07:28:29;;;;;;;10.07;2.60;;;9.30;99.90;;;;;;5114800;27;20051;-75
2022/01/18 07:30:54;;;;;;;8.80;2.35;;;9.20;99.90;;;;;;5131451;27;20031;-76
2022/01/18 07:33:20;;;;;;;9.57;1.95;;;9.60;99.90;;;;;;5131784;27;20043;-75
2022/01/18 07:35:46;;;;;;;12.00;2.25;;;9.00;99.90;;;;;;5131642;27;20126;-75
2022/01/18 07:38:16;;;;;;;9.45;2.05;;;9.60;99.90;;;;;;5132013;27;20446;-75
2022/01/18 07:40:44;;;;;;;7.72;2.10;;;8.40;99.90;;;;;;5132250;27;20047;-77
2022/01/18 07:43:13;;;;;;;9.45;2.00;;;8.80;99.90;;;;;;5113833;27;20051;-76
2022/01/18 07:45:39;;;;;;;10.25;2.08;;;8.50;99.90;;;;;;5114307;27;20466;-76
2022/01/18 07:48:05;;;;;;;10.35;3.00;;;8.60;99.90;;;;;;5130854;27;20134;-76
2022/01/18 07:50:31;;;;;;;10.05;2.85;;;8.60;99.90;;;;;;5130536;27;20031;-75
2022/01/18 07:52:56;;;;;;;8.00;2.40;;;9.10;99.90;;;;;;5097178;27;20046;-75
2022/01/18 07:55:22;;;;;;;12.27;2.20;;;8.60;99.90;;;;;;5097283;27;20210;-74
2022/01/18 07:57:48;;;;;;;10.50;2.67;;;9.70;99.90;;;;;;5130567;27;20035;-77
2022/01/18 08:00:15;;;;;;;6.65;2.10;;;9.40;99.90;;;;;;5114042;27;20027;-73
2022/01/18 08:02:42;;;;;;;14.98;3.13;;;9.70;99.90;;;;;;5114106;27;20103;-73
2022/01/18 08:05:09;;;;;;;11.35;2.65;;;9.00;99.90;;;;;;5131320;27;20050;-73
2022/01/18 08:07:36;;;;;;;7.72;3.10;;;9.00;99.90;;;;;;5114397;27;20455;-76
2022/01/18 08:10:04;;;;;;;5.03;2.20;;;8.70;99.90;;;;;;5119361;27;20074;-73
2022/01/18 08:12:29;;;;;;;11.13;2.67;;;8.40;99.90;;;;;;5091066;28;20547;-73
2022/01/18 08:15:01;;;;;;;8.43;2.50;;;8.50;99.90;;;;;;5087100;28;20074;-75
2022/01/18 08:17:26;;;;;;;9.90;3.10;;;9.30;99.90;;;;;;5106789;27;20039;-73
2022/01/18 08:19:52;;;;;;;11.15;2.90;;;9.80;99.90;;;;;;5124160;27;20087;-73
2022/01/18 08:22:18;;;;;;;13.02;3.28;;;9.00;99.90;;;;;;5111031;27;20046;-73
2022/01/18 08:24:44;;;;;;;7.75;2.65;;;8.80;99.90;;;;;;5110811;27;20079;-73
2022/01/18 08:27:09;;;;;;;16.63;3.28;;;9.00;99.90;;;;;;5122951;27;20047;-73
2022/01/18 08:29:36;;;;;;;12.73;4.20;;;9.70;99.90;;;;;;5072897;27;20043;-74
2022/01/18 08:32:06;;;;;;;13.85;5.32;;;9.20;99.90;;;;;;5089633;27;20045;-73
2022/01/18 08:34:32;;;;;;;13.90;5.97;;;8.60;99.90;;;;;;5073707;27;20039;-74
2022/01/18 08:36:58;;;;;;;15.15;4.07;;;8.70;99.90;;;;;;5089767;27;20126;-73
2022/01/18 08:39:24;;;;;;;10.13;3.65;;;9.50;99.90;;;;;;5106696;27;20047;-73
2022/01/18 08:41:50;;;;;;;9.35;3.85;;;8.60;99.90;;;;;;5106442;27;20057;-72
2022/01/18 08:44:16;;;;;;;14.55;4.40;;;9.50;99.90;;;;;;5089629;27;20043;-72
2022/01/18 08:46:42;;;;;;;10.82;3.67;;;9.00;99.90;;;;;;5089675;27;20042;-72
2022/01/18 08:49:08;;;;;;;10.15;3.22;;;9.60;99.90;;;;;;5105987;27;20089;-72
2022/01/18 08:51:34;;;;;;;13.68;3.38;;;9.00;99.90;;;;;;5106615;27;20126;-72
2022/01/18 08:54:01;;;;;;;14.30;3.30;;;9.80;99.90;;;;;;5106150;27;20043;-71
2022/01/18 08:56:27;;;;;;;10.48;2.60;;;8.60;99.90;;;;;;5071840;27;20038;-72
2022/01/18 08:58:52;;;;;;;12.75;3.53;;;9.50;99.90;;;;;;5105910;27;20053;-75
2022/01/18 09:01:18;;;;;;;7.95;2.83;;;9.80;99.90;;;;;;5089253;27;20427;-73
2022/01/18 09:03:45;;;;;;;10.45;3.15;;;9.80;99.90;;;;;;5072528;27;20039;-72
2022/01/18 09:06:16;;;;;;;8.57;3.08;;;9.30;99.90;;;;;;5105724;27;20038;-72
2022/01/18 09:08:41;;;;;;;6.97;3.80;;;8.60;99.90;;;;;;5106162;27;20058;-73
2022/01/18 09:11:10;;;;;;;12.95;3.50;;;9.10;99.90;;;;;;5089048;27;20035;-72
2022/01/18 09:13:37;;;;;;;9.13;3.47;;;8.90;99.90;;;;;;5106424;27;20043;-72
2022/01/18 09:16:06;;;;;;;13.32;3.80;;;9.50;99.90;;;;;;5089091;27;20043;-72
2022/01/18 09:18:32;;;;;;;10.27;2.80;;;8.60;99.90;;;;;;5089789;27;20067;-71
2022/01/18 09:20:59;;;;;;;9.32;3.05;;;9.60;99.90;;;;;;5088607;27;20136;-72
2022/01/18 09:23:24;;;;;;;12.30;3.58;;;8.70;99.90;;;;;;5088847;27;20466;-71
2022/01/18 09:25:50;;;;;;;11.02;3.13;;;8.60;99.90;;;;;;5105998;27;20077;-72
2022/01/18 09:28:16;;;;;;;15.05;3.58;;;8.70;99.90;;;;;;5089051;27;20051;-72
2022/01/18 09:30:42;;;;;;;8.40;2.65;;;8.80;99.90;;;;;;5106029;27;20100;-72
2022/01/18 09:33:08;;;;;;;14.77;3.17;;;8.80;99.90;;;;;;5105331;27;20054;-73
2022/01/18 09:35:36;;;;;;;14.25;3.75;;;9.20;99.90;;;;;;5106321;28;20462;-75
2022/01/18 09:38:02;;;;;;;9.85;2.90;;;9.60;99.90;;;;;;5089403;28;20050;-74
2022/01/18 09:40:30;;;;;;;7.07;2.75;;;8.80;99.90;;;;;;5122787;27;20065;-75
2022/01/18 09:43:01;;;;;;;10.63;3.55;;;9.70;99.90;;;;;;5133251;27;20394;-72
2022/01/18 09:45:28;;;;;;;6.20;2.05;;;9.80;99.90;;;;;;5133037;27;20046;-72
2022/01/18 09:47:56;;;;;;;12.13;2.35;;;8.90;99.90;;;;;;5133675;27;20066;-74
2022/01/18 09:50:31;;;;;;;14.50;3.17;;;9.70;99.90;;;;;;5133461;27;20074;-75
2022/01/18 09:52:58;;;;;;;9.02;2.20;;;9.40;99.90;;;;;;5133179;27;20039;-75
2022/01/18 09:55:26;;;;;;;10.43;2.80;;;9.40;99.90;;;;;;5099835;27;20035;-73
2022/01/18 09:57:56;;;;;;;6.13;2.22;;;9.00;99.90;;;;;;5133615;27;20121;-74
2022/01/18 10:00:25;;;;;;;5.68;2.30;;;9.00;99.90;;;;;;5133589;27;20108;-74
2022/01/18 10:02:52;;;;;;;8.77;2.35;;;9.00;99.90;;;;;;5116347;27;20034;-75
2022/01/18 10:05:32;;;;;;;9.43;2.85;;;9.00;99.90;;;;;;5133081;27;20042;-73
2022/01/18 10:08:14;;;;;;;9.60;2.75;;;9.30;99.90;;;;;;5135133;27;20053;-73
2022/01/18 10:10:49;;;;;;;8.13;2.10;;;9.20;99.90;;;;;;5120217;27;20121;-75
2022/01/18 10:13:21;;;;;;;9.57;2.40;;;8.70;99.90;;;;;;5137058;27;20039;-72
2022/01/18 10:16:20;;;;;;;9.23;2.00;;;9.00;99.90;;;;;;5136938;27;20434;-74
2022/01/18 10:18:54;;;;;;;9.77;2.17;;;8.70;99.90;;;;;;5136805;27;20075;-73
2022/01/18 10:21:30;;;;;;;6.60;1.92;;;8.60;99.90;;;;;;5136046;27;20530;-72
2022/01/18 10:24:22;;;;;;;9.88;2.30;;;9.00;99.90;;;;;;5136637;27;20050;-72
2022/01/18 10:26:51;;;;;;;9.65;2.85;;;9.00;99.90;;;;;;5136556;27;20035;-72
2022/01/18 10:29:19;;;;;;;13.57;3.53;;;9.30;99.90;;;;;;5118143;27;20038;-73
2022/01/18 10:34:42;;;;;;;9.93;3.63;;;8.90;99.90;;;;;;5136767;27;20042;-74
2022/01/18 10:37:15;;;;;;;8.18;2.80;;;8.50;99.90;;;;;;5136540;27;20043;-73
2022/01/18 10:39:50;;;;;;;8.93;2.97;;;8.60;99.90;;;;;;5136888;27;20039;-77
2022/01/18 10:42:17;;;;;;;10.18;3.00;;;8.50;99.90;;;;;;5136473;27;20042;-74
2022/01/18 10:44:46;;;;;;;7.38;2.63;;;9.00;99.90;;;;;;5137137;27;20046;-73
2022/01/18 10:47:12;;;;;;;9.65;3.70;;;8.70;99.90;;;;;;5119552;27;20097;-75
2022/01/18 10:49:46;;;;;;;10.35;2.83;;;9.00;99.90;;;;;;5136464;27;20046;-73
2022/01/18 10:52:20;;;;;;;7.90;3.45;;;9.00;99.90;;;;;;5119013;27;20038;-75
2022/01/18 10:54:47;;;;;;;11.13;2.50;;;8.80;99.90;;;;;;5136413;27;20090;-72
2022/01/18 10:57:22;;;;;;;6.93;2.30;;;8.50;99.90;;;;;;5118873;27;20275;-73
2022/01/18 10:59:48;;;;;;;9.98;2.83;;;8.70;99.90;;;;;;5136853;27;20051;-72
2022/01/18 11:02:20;;;;;;;12.00;2.67;;;8.40;99.90;;;;;;5135864;27;20035;-73
2022/01/18 11:04:50;;;;;;;9.85;3.13;;;8.60;99.90;;;;;;5136600;27;20053;-73
2022/01/18 11:07:22;;;;;;;9.35;2.95;;;8.70;99.90;;;;;;5136123;27;20042;-74
2022/01/18 11:09:48;;;;;;;11.70;2.95;;;8.30;99.90;;;;;;5118940;27;20050;-73
2022/01/18 11:12:14;;;;;;;8.93;3.00;;;8.50;99.90;;;;;;5118866;27;20031;-74
2022/01/18 11:14:49;;;;;;;9.40;2.67;;;8.60;99.90;;;;;;5136202;27;20483;-74
2022/01/18 11:17:22;;;;;;;10.15;3.38;;;8.30;99.90;;;;;;5118830;27;20163;-74
2022/01/18 11:19:50;;;;;;;12.43;3.42;;;8.60;99.90;;;;;;5118778;27;20416;-72
2022/01/18 11:22:16;;;;;;;14.65;3.15;;;8.40;99.90;;;;;;5135852;27;20065;-73
2022/01/18 11:24:45;;;;;;;14.73;3.83;;;8.80;99.90;;;;;;5136106;27;20102;-73
2022/01/18 11:27:14;;;;;;;10.82;3.35;;;8.40;99.90;;;;;;5136092;27;20035;-72
2022/01/18 11:29:46;;;;;;;10.20;3.58;;;8.80;99.90;;;;;;5136051;27;20047;-73
2022/01/18 11:32:13;;;;;;;10.80;3.40;;;8.40;99.90;;;;;;5118717;27;20049;-73
2022/01/18 11:35:03;;;;;;;12.90;3.40;;;8.60;99.90;;;;;;5101963;27;20041;-74
2022/01/18 11:37:37;;;;;;;11.57;3.85;;;8.10;99.90;;;;;;5135788;27;20443;-73
2022/01/18 11:40:11;;;;;;;10.35;2.63;;;8.30;99.90;;;;;;5135649;27;20042;-74
2022/01/18 11:42:46;;;;;;;11.50;2.78;;;8.20;99.90;;;;;;5135832;27;20748;-73
2022/01/18 11:45:24;;;;;;;13.63;4.22;;;8.60;99.90;;;;;;5135159;27;20513;-75
2022/01/18 11:48:04;;;;;;;10.70;3.30;;;8.60;99.90;;;;;;5135824;27;20429;-73
2022/01/18 11:50:51;;;;;;;14.65;3.85;;;8.60;99.90;;;;;;5135104;27;20035;-73
2022/01/18 11:54:16;;;;;;;10.82;2.88;;;8.50;99.90;;;;;;5117243;27;20495;-74
2022/01/18 11:56:36;;;;;;;12.85;3.28;;;8.30;99.90;;;;;;5134591;27;20537;-73
2022/01/18 11:59:22;;;;;;;10.75;3.63;;;8.50;99.90;;;;;;5135473;27;20046;-74
2022/01/18 12:01:54;;;;;;;10.75;3.35;;;8.20;99.90;;;;;;5118221;27;20074;-72
2022/01/18 12:05:01;;;;;;;10.30;3.55;;;8.50;99.90;;;;;;5134968;27;20130;-73
2022/01/18 12:07:33;;;;;;;6.63;3.00;;;8.40;99.90;;;;;;5106750;27;20129;-73
2022/01/18 12:10:06;;;;;;;16.30;4.55;;;8.20;99.90;;;;;;5134629;27;20045;-74
2022/01/18 12:12:41;;;;;;;6.65;2.95;;;8.20;99.90;;;;;;5117822;27;20046;-72
2022/01/18 12:15:16;;;;;;;9.57;3.10;;;8.60;99.90;;;;;;5118049;27;20449;-72
2022/01/18 12:17:49;;;;;;;;;;;8.10;99.90;;;;;;5135610;27;20114;-74
2022/01/18 12:20:35;;;;;;;11.82;2.88;;;8.30;99.90;;;;;;5134455;27;19914;-74
2022/01/18 12:23:21;;;;;;;10.55;2.88;;;8.00;99.90;;;;;;5118268;27;20046;-73
2022/01/18 12:25:55;;;;;;;;;;;8.60;99.90;;;;;;5118299;27;20133;-73
2022/01/18 12:28:49;;;;;;;8.57;3.00;;;8.20;99.90;;;;;;5117299;27;20271;-73
2022/01/18 12:34:30;;;;;;;5.65;2.22;;;8.60;99.90;;;;;;5134213;27;20481;-74
2022/01/18 12:37:11;;;;;;;11.73;2.83;;;8.60;99.90;;;;;;5134319;27;20498;-74
2022/01/18 12:45:19;;;;;;;7.40;2.50;;;8.50;99.90;;;;;;5102912;27;20058;-72
2022/01/18 12:47:52;;;;;;;7.05;2.22;;;8.20;99.90;;;;;;5117408;27;20038;-74
2022/01/18 12:50:27;;;;;;;8.40;2.47;;;8.50;99.90;;;;;;5133442;27;20126;-74
2022/01/18 12:53:04;;;;;;;11.48;2.58;;;8.40;99.90;;;;;;5134612;27;20497;-74
2022/01/18 12:55:42;;;;;;;6.78;2.42;;;8.60;99.90;;;;;;5134228;27;20074;-72
2022/01/18 12:58:27;;;;;;;12.05;3.28;;;8.50;99.90;;;;;;5134114;27;20483;-74
2022/01/18 13:01:09;;;;;;;10.63;2.67;;;8.10;99.90;;;;;;5134291;27;20196;-72
2022/01/18 13:03:43;;;;;;;10.80;2.95;;;8.30;99.90;;;;;;5116497;27;20038;-74
2022/01/18 13:06:10;;;;;;;6.85;3.38;;;8.20;99.90;;;;;;5134556;27;20454;-73
2022/01/18 13:08:39;;;;;;;12.90;4.07;;;8.50;99.90;;;;;;5116368;27;20039;-72
2022/01/18 13:11:05;;;;;;;9.98;3.78;;;8.10;99.90;;;;;;5134269;27;20126;-73
2022/01/18 13:13:33;;;;;;;16.02;3.95;;;8.00;99.90;;;;;;5099605;27;20683;-71
2022/01/18 13:22:53;;;;;;;12.32;4.10;;;8.30;99.90;;;;;;5116330;27;20080;-72
2022/01/18 13:27:15;;;;;;;7.70;3.30;;;8.50;99.90;;;;;;5133646;27;20047;-71
2022/01/18 13:29:41;;;;;;;9.20;3.47;;;8.40;99.90;;;;;;5133374;27;20088;-73
2022/01/18 13:32:16;;;;;;;10.23;4.13;;;8.00;99.90;;;;;;5134026;27;20050;-73
2022/01/18 13:34:44;;;;;;;15.07;4.10;;;8.40;99.90;;;;;;5116801;27;20439;-73
2022/01/18 13:37:14;;;;;;;13.20;4.68;;;8.30;99.90;;;;;;5116721;27;20073;-72
2022/01/18 13:39:57;;;;;;;17.48;4.88;;;7.90;99.90;;;;;;5133084;27;20050;-71
2022/01/18 13:42:45;;;;;;;14.45;4.35;;;8.20;99.90;;;;;;5132911;27;20103;-72
2022/01/18 13:45:28;;;;;;;13.45;4.63;;;8.10;99.90;;;;;;5116079;27;20061;-73
2022/01/18 13:48:07;;;;;;;10.75;4.05;;;8.20;99.90;;;;;;5116380;27;20486;-72
2022/01/18 13:50:42;;;;;;;12.63;4.18;;;8.60;99.90;;;;;;5115789;27;20046;-73
2022/01/18 13:53:14;;;;;;;12.80;4.25;;;8.10;99.90;;;;;;5116541;27;20038;-74
2022/01/18 13:55:49;;;;;;;10.32;4.63;;;8.20;99.90;;;;;;5133056;27;20050;-74
2022/01/18 13:58:22;;;;;;;13.40;4.40;;;8.20;99.90;;;;;;5116141;27;20133;-73
2022/01/18 14:00:48;;;;;;;17.52;5.40;;;8.40;99.90;;;;;;5133275;27;20049;-73
2022/01/18 14:03:47;;;;;;;14.40;4.22;;;8.30;99.90;;;;;;5133116;27;20076;-71
2022/01/18 14:06:15;;;;;;;11.73;4.47;;;8.30;99.90;;;;;;5133179;27;20117;-72
2022/01/18 14:08:50;;;;;;;13.48;5.05;;;8.20;99.90;;;;;;5115775;27;20053;-73
2022/01/18 14:11:22;;;;;;;14.10;4.82;;;8.30;99.90;;;;;;5133024;27;20035;-72
2022/01/18 14:13:49;;;;;;;16.67;5.72;;;8.00;99.90;;;;;;5116364;27;20043;-71
2022/01/18 14:16:33;;;;;;;8.13;4.38;;;7.90;99.90;;;;;;5133186;27;20034;-72
2022/01/18 14:19:03;;;;;;;9.77;4.50;;;8.10;99.90;;;;;;5133083;27;20046;-72
2022/01/18 14:21:30;;;;;;;13.48;5.18;;;7.80;99.90;;;;;;5132460;27;20483;-73
2022/01/18 14:24:08;;;;;;;13.15;4.53;;;7.80;99.90;;;;;;5133183;27;20085;-72
2022/01/18 14:26:35;;;;;;;9.30;4.68;;;7.80;99.90;;;;;;5115689;27;20129;-73
2022/01/18 14:29:03;;;;;;;16.10;5.28;;;8.10;99.90;;;;;;5116120;27;20042;-71
2022/01/18 14:31:29;;;;;;;13.23;4.60;;;7.70;99.90;;;;;;5133012;27;20125;-72
2022/01/18 14:33:54;;;;;;;9.05;4.43;;;8.40;99.90;;;;;;5115840;27;20645;-74